createdAt,value
2019-02-02T00:01:10.343Z,3.42
2019-02-02T00:03:40.781Z,3.47
2019-02-02T00:06:11.250Z,3.47
2019-02-02T00:08:42.474Z,3.51
2019-02-02T00:11:13.251Z,3.55
2019-02-02T00:13:43.667Z,3.59
2019-02-02T00:16:14.158Z,3.65
2019-02-02T00:18:44.620Z,3.67
2019-02-02T00:21:15.185Z,3.72
2019-02-02T00:23:45.663Z,3.73
2019-02-02T00:26:16.160Z,3.79
2019-02-02T00:28:46.693Z,3.79
2019-02-02T00:31:17.519Z,3.83
2019-02-02T00:33:47.959Z,3.84
2019-02-02T00:36:18.736Z,3.85
2019-02-02T00:38:49.223Z,3.89
2019-02-02T00:41:19.748Z,3.88
2019-02-02T00:43:50.182Z,3.97
2019-02-02T00:46:20.671Z,4.03
2019-02-02T00:48:51.143Z,4.02
2019-02-02T00:51:21.719Z,4.02
2019-02-02T00:53:52.430Z,4.04
2019-02-02T00:56:23.196Z,4.02
2019-02-02T00:58:53.662Z,4.05
2019-02-02T01:01:24.138Z,4.05
2019-02-02T01:03:54.610Z,4.09
2019-02-02T01:06:25.148Z,4.09
2019-02-02T01:08:55.799Z,4.06
2019-02-02T01:11:26.648Z,4.00
2019-02-02T01:13:57.103Z,3.96
2019-02-02T01:16:27.551Z,3.94
2019-02-02T01:18:58.031Z,3.83
2019-02-02T01:21:28.622Z,3.83
2019-02-02T01:23:59.083Z,3.82
2019-02-02T01:26:29.608Z,3.83
2019-02-02T01:29:00.316Z,3.82
2019-02-02T01:31:30.827Z,3.83
2019-02-02T01:34:01.320Z,3.84
2019-02-02T01:36:31.890Z,3.84
2019-02-02T01:39:02.651Z,3.85
2019-02-02T01:41:33.090Z,3.88
2019-02-02T01:44:03.828Z,3.87
2019-02-02T01:46:34.309Z,3.87
2019-02-02T01:49:04.738Z,3.84
2019-02-02T01:51:35.460Z,3.85
2019-02-02T01:54:06.275Z,3.84
2019-02-02T01:56:37.093Z,3.83
2019-02-02T01:59:07.531Z,3.84
2019-02-02T02:01:38.003Z,3.80
2019-02-02T02:04:08.430Z,3.78
2019-02-02T02:06:38.865Z,3.76
2019-02-02T02:09:10.537Z,3.72
2019-02-02T02:11:41.866Z,3.70
2019-02-02T02:14:12.578Z,3.67
2019-02-02T02:16:43.077Z,3.58
2019-02-02T02:19:13.577Z,3.58
2019-02-02T02:21:44.412Z,3.55
2019-02-02T02:24:14.878Z,3.45
2019-02-02T02:26:45.224Z,3.47
2019-02-02T02:29:15.787Z,3.43
2019-02-02T02:31:46.268Z,3.37
2019-02-02T02:34:16.755Z,3.33
2019-02-02T02:36:47.194Z,3.26
2019-02-02T02:39:17.673Z,3.32
2019-02-02T02:41:48.443Z,3.34
2019-02-02T02:44:18.861Z,3.31
2019-02-02T02:46:49.329Z,3.30
2019-02-02T02:49:19.770Z,3.37
2019-02-02T02:51:50.189Z,3.32
2019-02-02T02:54:20.627Z,3.32
2019-02-02T02:56:51.048Z,3.30
2019-02-02T02:59:21.525Z,3.31
2019-02-02T03:01:52.853Z,3.32
2019-02-02T03:04:23.301Z,3.27
2019-02-02T03:06:54.025Z,3.20
2019-02-02T03:09:24.435Z,3.21
2019-02-02T03:11:55.192Z,3.27
2019-02-02T03:14:25.620Z,3.28
2019-02-02T03:16:56.063Z,3.29
2019-02-02T03:19:26.486Z,3.32
2019-02-02T03:21:56.990Z,3.29
2019-02-02T03:24:27.485Z,3.23
2019-02-02T03:26:57.842Z,3.30
2019-02-02T03:29:28.551Z,3.31
2019-02-02T03:31:59.010Z,3.32
2019-02-02T03:34:29.358Z,3.33
2019-02-02T03:36:59.804Z,3.30
2019-02-02T03:39:30.258Z,3.31
2019-02-02T03:42:00.686Z,3.27
2019-02-02T03:44:31.403Z,3.25
2019-02-02T03:47:01.906Z,3.26
2019-02-02T03:49:32.347Z,3.26
2019-02-02T03:52:03.033Z,3.27
2019-02-02T03:54:33.802Z,3.30
2019-02-02T03:57:04.235Z,3.29
2019-02-02T03:59:34.926Z,3.31
2019-02-02T04:02:05.448Z,3.29
2019-02-02T04:04:36.438Z,3.34
2019-02-02T04:07:07.124Z,3.31
2019-02-02T04:09:37.550Z,3.28
2019-02-02T04:12:08.026Z,3.24
2019-02-02T04:14:38.472Z,3.29
2019-02-02T04:17:08.942Z,3.27
2019-02-02T04:19:39.321Z,3.25
2019-02-02T04:22:10.254Z,3.25
2019-02-02T04:24:40.735Z,3.23
2019-02-02T04:27:11.203Z,3.19
2019-02-02T04:29:41.645Z,3.22
2019-02-02T04:32:12.126Z,3.21
2019-02-02T04:34:42.565Z,3.19
2019-02-02T04:37:13.257Z,3.17
2019-02-02T04:39:43.653Z,3.19
2019-02-02T04:42:14.094Z,3.17
2019-02-02T04:45:03.709Z,3.16
2019-02-02T04:47:46.369Z,3.13
2019-02-02T04:50:35.956Z,3.14
2019-02-02T04:53:18.537Z,3.09
2019-02-02T04:56:26.979Z,3.10
2019-02-02T04:59:09.214Z,3.06
2019-02-02T05:01:58.808Z,3.06
2019-02-02T05:04:41.165Z,3.08
2019-02-02T05:07:30.747Z,3.08
2019-02-02T05:10:14.484Z,3.06
2019-02-02T05:13:04.015Z,3.05
2019-02-02T05:15:46.524Z,3.06
2019-02-02T05:18:17.028Z,3.03
2019-02-02T05:20:47.373Z,3.00
2019-02-02T05:23:17.871Z,2.99
2019-02-02T05:25:48.358Z,2.91
2019-02-02T05:28:19.039Z,2.90
2019-02-02T05:30:49.538Z,2.91
2019-02-02T05:33:20.325Z,3.01
2019-02-02T05:35:50.930Z,2.94
2019-02-02T05:38:21.360Z,2.97
2019-02-02T05:40:51.746Z,3.02
2019-02-02T05:43:22.454Z,3.02
2019-02-02T05:45:53.187Z,3.07
2019-02-02T05:48:23.803Z,3.06
2019-02-02T05:50:54.273Z,3.06
2019-02-02T05:53:24.684Z,3.06
2019-02-02T05:55:55.135Z,3.07
2019-02-02T05:58:25.549Z,3.09
2019-02-02T06:00:56.844Z,3.03
2019-02-02T06:03:27.323Z,3.04
2019-02-02T06:05:58.010Z,3.04
2019-02-02T06:08:28.751Z,3.06
2019-02-02T06:10:59.201Z,3.07
2019-02-02T06:13:29.640Z,3.03
2019-02-02T06:16:00.068Z,3.06
2019-02-02T06:18:30.752Z,3.08
2019-02-02T06:21:01.432Z,3.07
2019-02-02T06:23:32.099Z,3.11
2019-02-02T06:26:02.929Z,3.11
2019-02-02T06:28:33.445Z,3.07
2019-02-02T06:31:04.175Z,3.11
2019-02-02T06:33:35.643Z,3.15
2019-02-02T06:36:06.174Z,3.16
2019-02-02T06:38:36.588Z,3.18
2019-02-02T06:41:07.079Z,3.20
2019-02-02T06:43:37.417Z,3.23
2019-02-02T06:46:08.129Z,3.23
2019-02-02T06:48:38.574Z,3.25
2019-02-02T06:51:08.980Z,3.26
2019-02-02T06:53:39.671Z,3.29
2019-02-02T06:56:10.395Z,3.29
2019-02-02T06:58:40.836Z,3.31
2019-02-02T07:01:11.253Z,3.30
2019-02-02T07:03:41.700Z,3.33
2019-02-02T07:06:12.133Z,3.35
2019-02-02T07:08:42.917Z,3.37
2019-02-02T07:11:13.781Z,3.40
2019-02-02T07:13:44.563Z,3.38
2019-02-02T07:16:15.147Z,3.37
2019-02-02T07:18:45.733Z,3.37
2019-02-02T07:21:16.411Z,3.35
2019-02-02T07:23:46.838Z,3.37
2019-02-02T07:26:17.289Z,3.37
2019-02-02T07:28:47.691Z,3.36
2019-02-02T07:31:18.995Z,3.36
2019-02-02T07:33:49.670Z,3.34
2019-02-02T07:36:20.106Z,3.34
2019-02-02T07:38:50.530Z,3.35
2019-02-02T07:41:20.984Z,3.33
2019-02-02T07:43:51.404Z,3.38
2019-02-02T07:46:21.838Z,3.37
2019-02-02T07:48:52.263Z,3.36
2019-02-02T07:51:22.707Z,3.35
2019-02-02T07:53:53.260Z,3.34
2019-02-02T07:56:23.701Z,3.36
2019-02-02T07:58:54.222Z,3.39
2019-02-02T08:01:24.778Z,3.43
2019-02-02T08:03:55.530Z,3.41
2019-02-02T08:06:25.872Z,3.39
2019-02-02T08:08:56.299Z,3.41
2019-02-02T08:11:26.805Z,3.41
2019-02-02T08:13:57.224Z,3.41
2019-02-02T08:16:27.688Z,3.38
2019-02-02T08:18:58.188Z,3.41
2019-02-02T08:21:28.612Z,3.40
2019-02-02T08:23:59.498Z,3.37
2019-02-02T08:26:30.393Z,3.42
2019-02-02T08:29:01.055Z,3.42
2019-02-02T08:31:31.432Z,3.44
2019-02-02T08:34:01.954Z,3.44
2019-02-02T08:36:32.327Z,3.47
2019-02-02T08:39:02.872Z,3.47
2019-02-02T08:41:33.322Z,3.50
2019-02-02T08:44:03.759Z,3.48
2019-02-02T08:46:34.429Z,3.48
2019-02-02T08:49:04.922Z,3.48
2019-02-02T08:51:35.685Z,3.40
2019-02-02T08:54:06.209Z,3.43
2019-02-02T08:56:36.860Z,3.42
2019-02-02T08:59:07.616Z,3.43
2019-02-02T09:01:38.325Z,3.42
2019-02-02T09:04:08.802Z,3.41
2019-02-02T09:06:39.440Z,3.37
2019-02-02T09:09:10.843Z,3.38
2019-02-02T09:11:41.553Z,3.38
2019-02-02T09:14:12.125Z,3.37
2019-02-02T09:16:42.850Z,3.38
2019-02-02T09:19:13.234Z,3.38
2019-02-02T09:21:43.971Z,3.37
2019-02-02T09:24:14.390Z,3.35
2019-02-02T09:26:45.060Z,3.36
2019-02-02T09:29:15.487Z,3.38
2019-02-02T09:31:45.992Z,3.38
2019-02-02T09:34:16.505Z,3.46
2019-02-02T09:36:46.972Z,3.34
2019-02-02T09:39:17.767Z,3.36
2019-02-02T09:41:48.196Z,3.36
2019-02-02T09:44:18.551Z,3.39
2019-02-02T09:46:49.297Z,3.45
2019-02-02T09:49:20.027Z,3.52
2019-02-02T09:51:50.583Z,3.58
2019-02-02T09:54:26.607Z,3.55
2019-02-02T09:56:53.242Z,3.52
2019-02-02T09:59:23.749Z,3.62
2019-02-02T10:01:54.191Z,3.63
2019-02-02T10:04:24.655Z,3.60
2019-02-02T10:06:55.101Z,3.65
2019-02-02T10:09:25.531Z,3.70
2019-02-02T10:11:56.051Z,3.63
2019-02-02T10:14:26.773Z,3.72
2019-02-02T10:16:57.232Z,3.69
2019-02-02T10:19:27.693Z,3.70
2019-02-02T10:21:58.050Z,3.74
2019-02-02T10:24:28.781Z,3.77
2019-02-02T10:26:59.245Z,3.81
2019-02-02T10:29:29.586Z,3.66
2019-02-02T10:32:00.297Z,3.67
2019-02-02T10:34:30.847Z,3.72
2019-02-02T10:37:01.329Z,3.67
2019-02-02T10:39:32.031Z,3.71
2019-02-02T10:42:02.804Z,3.70
2019-02-02T10:44:33.161Z,3.70
2019-02-02T10:47:03.597Z,3.63
2019-02-02T10:49:34.075Z,3.62
2019-02-02T10:52:06.447Z,3.59
2019-02-02T10:54:45.258Z,3.58
2019-02-02T10:57:15.941Z,3.60
2019-02-02T10:59:48.914Z,3.57
2019-02-02T11:02:18.944Z,3.60
2019-02-02T11:04:49.708Z,3.64
2019-02-02T11:07:20.569Z,3.68
2019-02-02T11:09:51.386Z,3.78
2019-02-02T11:12:22.150Z,3.69
2019-02-02T11:14:52.732Z,3.85
2019-02-02T11:17:26.346Z,3.86
2019-02-02T11:19:59.713Z,3.80
2019-02-02T11:22:30.497Z,3.80
2019-02-02T11:25:01.522Z,3.84
2019-02-02T11:27:33.113Z,3.87
2019-02-02T11:30:04.061Z,3.91
2019-02-02T11:32:35.013Z,3.91
2019-02-02T11:35:07.044Z,3.83
2019-02-02T11:37:37.829Z,3.71
2019-02-02T11:40:11.982Z,3.75
2019-02-02T11:42:43.000Z,3.76
2019-02-02T11:45:14.051Z,3.80
2019-02-02T11:47:44.913Z,3.73
2019-02-02T11:50:17.158Z,3.73
2019-02-02T11:52:48.189Z,3.72
2019-02-02T11:55:19.846Z,3.68
2019-02-02T11:57:50.665Z,3.72
2019-02-02T12:00:42.219Z,3.67
2019-02-02T12:03:13.149Z,3.65
2019-02-02T12:05:46.574Z,3.66
2019-02-02T12:08:17.098Z,3.53
2019-02-02T12:10:50.389Z,3.48
2019-02-02T12:13:21.332Z,3.44
2019-02-02T12:15:52.092Z,3.41
2019-02-02T12:18:23.166Z,3.29
2019-02-02T12:20:54.229Z,3.33
2019-02-02T12:23:25.116Z,3.33
2019-02-02T12:25:55.739Z,3.31
2019-02-02T12:28:26.805Z,3.30
2019-02-02T12:30:57.506Z,3.31
2019-02-02T12:33:28.705Z,3.35
2019-02-02T12:35:59.185Z,3.31
2019-02-02T12:38:29.648Z,3.26
2019-02-02T12:41:00.153Z,3.23
2019-02-02T12:43:30.880Z,3.34
2019-02-02T12:46:01.533Z,3.34
2019-02-02T12:48:32.499Z,3.43
2019-02-02T12:51:03.316Z,3.37
2019-02-02T12:53:33.839Z,3.30
2019-02-02T12:56:04.731Z,3.32
2019-02-02T12:58:35.228Z,3.35
2019-02-02T13:01:05.715Z,3.36
2019-02-02T13:03:36.140Z,3.34
2019-02-02T13:06:07.409Z,3.32
2019-02-02T13:08:38.225Z,3.31
2019-02-02T13:11:08.722Z,3.22
2019-02-02T13:13:42.421Z,3.27
2019-02-02T13:16:11.764Z,3.31
2019-02-02T13:18:50.001Z,3.32
2019-02-02T13:21:20.646Z,3.23
2019-02-02T13:23:51.115Z,3.34
2019-02-02T13:26:21.595Z,3.27
2019-02-02T13:28:55.086Z,3.23
2019-02-02T13:31:24.422Z,3.25
2019-02-02T13:33:54.944Z,3.34
2019-02-02T13:36:25.751Z,3.37
2019-02-02T13:38:56.228Z,3.28
2019-02-02T13:41:27.726Z,3.33
2019-02-02T13:43:58.228Z,3.28
2019-02-02T13:46:31.428Z,3.26
2019-02-02T13:49:18.898Z,3.26
2019-02-02T13:52:05.598Z,3.24
2019-02-02T13:54:36.253Z,3.19
2019-02-02T13:57:07.236Z,3.14
2019-02-02T13:59:37.790Z,3.16
2019-02-02T14:02:08.436Z,3.09
2019-02-02T14:04:42.414Z,3.15
2019-02-02T14:07:18.842Z,3.12
2019-02-02T14:09:49.450Z,3.06
2019-02-02T14:12:20.230Z,3.07
2019-02-02T14:14:50.734Z,3.02
2019-02-02T14:17:21.289Z,3.01
2019-02-02T14:19:52.129Z,2.96
2019-02-02T14:22:22.998Z,2.97
2019-02-02T14:24:53.598Z,2.95
2019-02-02T14:27:24.109Z,2.90
2019-02-02T14:29:55.081Z,2.88
2019-02-02T14:35:49.006Z,2.81
2019-02-02T14:38:20.406Z,2.76
2019-02-02T14:40:51.154Z,2.78
2019-02-02T14:43:24.755Z,2.81
2019-02-02T14:45:55.634Z,2.70
2019-02-02T14:48:26.441Z,2.71
2019-02-02T14:50:56.979Z,2.66
2019-02-02T14:53:27.543Z,2.74
2019-02-02T14:55:58.524Z,2.77
2019-02-02T14:58:29.504Z,2.71
2019-02-02T15:01:00.268Z,2.74
2019-02-02T15:03:30.670Z,2.77
2019-02-02T15:06:01.551Z,2.69
2019-02-02T15:08:32.418Z,2.73
2019-02-02T15:11:03.186Z,2.77
2019-02-02T15:13:34.058Z,2.75
2019-02-02T15:16:04.954Z,2.78
2019-02-02T15:18:35.846Z,2.77
2019-02-02T15:21:06.843Z,2.78
2019-02-02T15:23:37.311Z,2.79
2019-02-02T15:26:07.935Z,2.72
2019-02-02T15:28:38.824Z,2.68
2019-02-02T15:31:09.354Z,2.66
2019-02-02T15:33:39.891Z,2.64
2019-02-02T15:36:11.207Z,2.65
2019-02-02T15:38:42.199Z,2.57
2019-02-02T15:41:13.039Z,2.52
2019-02-02T15:43:43.890Z,2.48
2019-02-02T15:46:14.609Z,2.39
2019-02-02T15:48:45.116Z,2.43
2019-02-02T15:51:16.000Z,2.37
2019-02-02T15:53:48.779Z,2.41
2019-02-02T15:56:19.202Z,2.41
2019-02-02T15:58:50.556Z,2.35
2019-02-02T16:01:21.054Z,2.31
2019-02-02T16:03:51.822Z,2.29
2019-02-02T16:06:22.311Z,2.24
2019-02-02T16:08:53.151Z,2.21
2019-02-02T16:11:23.941Z,2.19
2019-02-02T16:13:54.765Z,2.17
2019-02-02T16:16:25.162Z,2.24
2019-02-02T16:18:55.594Z,2.15
2019-02-02T16:21:26.339Z,2.13
2019-02-02T16:23:56.848Z,2.07
2019-02-02T16:26:27.269Z,2.07
2019-02-02T16:28:57.661Z,2.04
2019-02-02T16:31:28.153Z,2.06
2019-02-02T16:34:02.202Z,2.06
2019-02-02T16:36:31.097Z,2.03
2019-02-02T16:39:01.900Z,2.05
2019-02-02T16:41:37.236Z,2.08
2019-02-02T16:45:14.689Z,2.05
2019-02-02T16:47:45.263Z,2.05
2019-02-02T16:50:18.081Z,2.05
2019-02-02T16:53:07.695Z,1.98
2019-02-02T16:55:38.147Z,1.97
2019-02-02T16:58:08.824Z,2.00
2019-02-02T17:00:39.680Z,2.07
2019-02-02T17:03:10.397Z,2.06
2019-02-02T17:05:41.111Z,2.05
2019-02-02T17:08:11.848Z,2.07
2019-02-02T17:10:42.266Z,2.08
2019-02-02T17:13:12.749Z,2.07
2019-02-02T17:15:43.318Z,2.10
2019-02-02T17:18:13.755Z,2.10
2019-02-02T17:20:46.261Z,2.10
2019-02-02T17:23:16.731Z,2.09
2019-02-02T17:25:47.448Z,2.10
2019-02-02T17:28:18.087Z,2.15
2019-02-02T17:30:48.529Z,2.07
2019-02-02T17:33:18.960Z,2.14
2019-02-02T17:35:49.630Z,2.12
2019-02-02T17:38:20.300Z,2.13
2019-02-02T17:40:50.721Z,2.08
2019-02-02T17:43:21.069Z,2.10
2019-02-02T17:45:51.757Z,2.10
2019-02-02T17:48:22.525Z,2.08
2019-02-02T17:50:52.926Z,2.04
2019-02-02T17:53:23.641Z,2.05
2019-02-02T17:55:54.152Z,2.05
2019-02-02T17:58:24.882Z,2.10
2019-02-02T18:00:59.804Z,2.07
2019-02-02T18:03:30.200Z,2.10
2019-02-02T18:06:00.619Z,2.07
2019-02-02T18:08:31.053Z,2.07
2019-02-02T18:11:01.528Z,2.00
2019-02-02T18:13:32.092Z,2.09
2019-02-02T18:16:03.061Z,2.11
2019-02-02T18:18:33.481Z,2.09
2019-02-02T18:21:03.938Z,2.05
2019-02-02T18:23:34.415Z,2.04
2019-02-02T18:26:04.829Z,2.09
2019-02-02T18:28:35.529Z,2.06
2019-02-02T18:31:05.985Z,2.09
2019-02-02T18:33:36.441Z,2.06
2019-02-02T18:36:06.907Z,2.05
2019-02-02T18:38:37.161Z,2.08
2019-02-02T18:41:07.622Z,2.09
2019-02-02T18:43:38.022Z,2.11
2019-02-02T18:46:08.490Z,2.11
2019-02-02T18:48:38.988Z,2.14
2019-02-02T18:51:09.409Z,2.13
2019-02-02T18:53:39.730Z,2.14
2019-02-02T18:56:13.735Z,2.15
2019-02-02T18:58:44.161Z,2.19
2019-02-02T19:01:14.946Z,2.14
2019-02-02T19:03:45.485Z,2.11
2019-02-02T19:06:15.952Z,2.13
2019-02-02T19:08:46.644Z,2.17
2019-02-02T19:11:17.077Z,2.18
2019-02-02T19:13:47.819Z,2.16
2019-02-02T19:16:18.190Z,2.16
2019-02-02T19:18:48.643Z,2.21
2019-02-02T19:21:19.010Z,2.20
2019-02-02T19:23:49.431Z,2.18
2019-02-02T19:26:20.126Z,2.21
2019-02-02T19:28:50.743Z,2.18
2019-02-02T19:31:21.268Z,2.26
2019-02-02T19:33:51.697Z,2.26
2019-02-02T19:36:22.068Z,2.30
2019-02-02T19:38:52.418Z,2.35
2019-02-02T19:41:22.849Z,2.34
2019-02-02T19:43:53.517Z,2.28
2019-02-02T19:46:23.932Z,2.31
2019-02-02T19:48:54.533Z,2.37
2019-02-02T19:51:25.037Z,2.38
2019-02-02T19:53:55.749Z,2.45
2019-02-02T19:56:26.461Z,2.41
2019-02-02T19:58:57.380Z,2.39
2019-02-02T20:01:28.350Z,2.39
2019-02-02T20:03:59.205Z,2.41
2019-02-02T20:06:30.069Z,2.38
2019-02-02T20:09:01.046Z,2.43
2019-02-02T20:11:31.563Z,2.44
2019-02-02T20:14:04.301Z,2.43
2019-02-02T20:16:35.201Z,2.43
2019-02-02T20:19:06.069Z,2.47
2019-02-02T20:21:36.733Z,2.47
2019-02-02T20:24:07.578Z,2.44
2019-02-02T20:26:38.504Z,2.40
2019-02-02T20:29:09.387Z,2.42
2019-02-02T20:31:40.332Z,2.44
2019-02-02T20:34:10.901Z,2.41
2019-02-02T20:36:41.540Z,2.39
2019-02-02T20:39:12.428Z,2.39
2019-02-02T20:41:43.056Z,2.38
2019-02-02T20:44:13.811Z,2.37
2019-02-02T20:46:44.496Z,2.36
2019-02-02T20:49:15.426Z,2.33
2019-02-02T20:51:46.175Z,2.37
2019-02-02T20:54:18.916Z,2.33
2019-02-02T20:56:49.677Z,2.40
2019-02-02T20:59:20.717Z,2.39
2019-02-02T21:01:51.691Z,2.42
2019-02-02T21:04:22.412Z,2.39
2019-02-02T21:06:53.436Z,2.34
2019-02-02T21:09:24.063Z,2.39
2019-02-02T21:11:56.976Z,2.38
2019-02-02T21:14:27.147Z,2.34
2019-02-02T21:16:58.059Z,2.34
2019-02-02T21:19:29.360Z,2.37
2019-02-02T21:22:00.502Z,2.41
2019-02-02T21:24:30.949Z,2.38
2019-02-02T21:27:01.729Z,2.36
2019-02-02T21:29:32.494Z,2.37
2019-02-02T21:32:03.163Z,2.38
2019-02-02T21:34:33.672Z,2.41
2019-02-02T21:37:04.139Z,2.42
2019-02-02T21:39:34.564Z,2.37
2019-02-02T21:42:05.280Z,2.40
2019-02-02T21:44:42.922Z,2.40
2019-02-02T21:47:08.323Z,2.40
2019-02-02T21:49:39.045Z,2.39
2019-02-02T21:52:09.472Z,2.34
2019-02-02T21:54:40.287Z,2.35
2019-02-02T21:57:10.830Z,2.33
2019-02-02T21:59:41.251Z,2.34
2019-02-02T22:02:11.899Z,2.36
2019-02-02T22:04:42.755Z,2.39
2019-02-02T22:07:13.507Z,2.41
2019-02-02T22:09:44.206Z,2.41
2019-02-02T22:12:14.686Z,2.38
2019-02-02T22:14:45.129Z,2.39
2019-02-02T22:17:15.498Z,2.35
2019-02-02T22:19:46.310Z,2.39
2019-02-02T22:22:16.773Z,2.41
2019-02-02T22:24:47.208Z,2.42
2019-02-02T22:27:17.677Z,2.38
2019-02-02T22:29:48.399Z,2.42
2019-02-02T22:32:19.247Z,2.45
2019-02-02T22:34:49.801Z,2.43
2019-02-02T22:37:20.267Z,2.42
2019-02-02T22:39:50.757Z,2.42
2019-02-02T22:42:21.204Z,2.43
2019-02-02T22:44:52.069Z,2.43
2019-02-02T22:47:22.426Z,2.46
2019-02-02T22:49:53.314Z,2.48
2019-02-02T22:52:23.783Z,2.45
2019-02-02T22:54:54.445Z,2.41
2019-02-02T22:57:25.289Z,2.40
2019-02-02T22:59:56.040Z,2.40
2019-02-02T23:02:26.736Z,2.48
2019-02-02T23:05:34.465Z,2.45
2019-02-02T23:09:21.661Z,2.42
2019-02-02T23:12:20.945Z,2.38
2019-02-02T23:15:24.204Z,2.33
2019-02-02T23:17:54.709Z,2.32
2019-02-02T23:20:25.719Z,2.33
2019-02-02T23:22:56.149Z,2.36
2019-02-02T23:25:26.584Z,2.38
2019-02-02T23:27:57.021Z,2.40
2019-02-02T23:30:29.050Z,2.39
2019-02-02T23:32:59.483Z,2.41
2019-02-02T23:35:30.006Z,2.35
2019-02-02T23:38:00.734Z,2.39
2019-02-02T23:40:31.973Z,2.42
2019-02-02T23:43:02.802Z,2.32
2019-02-02T23:45:33.241Z,2.32
2019-02-02T23:48:03.690Z,2.33
2019-02-02T23:50:34.492Z,2.29
2019-02-02T23:53:05.551Z,2.31
2019-02-02T23:55:36.060Z,2.33
2019-02-02T23:58:06.943Z,2.33
